RJNY  Shizuhama Airport

Add Bookmark

Japan

Status
Operational
Latitude Longitude
34° 48' 46" N 138° 17' 52" E
34.812801 138.298004
Local (DST + 9) UTC (GMT + 9)
Oct 25, 2014 10:23 Oct 25, 2014 13:23
Sunrise-Sunset Local UTC
Begin Civil Twilight 05:33 20:33
Sunrise 05:59 20:59
Sunset 05:02 08:02
End Civil Twilight 05:27 08:27

Current Weather

METAR Observed VFR
RJNY 250527Z 13004KT 100V160 9999 FEW025 SCT030 BKN160 22/14 Q1021 Sat, Oct 25, 2014 @ 05:27 UTC
(7 Hours, 56 Minutes ago)
Visual Flight Rules
Wind Visibility Clouds Conditions
130° at 4 knots (7 kph) 10 km or more
  • Few at 2,500' AGL
  • Scattered at 3,000' AGL
  • Broken at 16,000' AGL
  • No significant weather
Temperatures Readings Precipitation
Current Temp 22°C (72°F)
Dewpoint 14°C (57°F)
Humidity 61%
Altimeter 30.15"Hg
Sea Level Pressure 1021mb
Field Elevation 32.81'
None Recorded

Additional weather within a 92.6km radius of RJNY

Map ICAO Location
rjns 10.2km W (259°)

24 Hour Weather History

Loading
-

24 Hour Weather Graphs

Loading
-

CheckWX.com is intended as a tool to help pilots better visualize weather data. It is not intended as a substitute for an official weather briefing obtained from a Flight Service Station. CheckWX.com does not meet the FAA requirements for an official pre-flight weather briefing. Therefore, it's important that pilots still call and obtain an official FSS pre-flight weather briefing.